Portada
METAR-TAF:

METAR-TAF

Aeroports :

Lewis University Airport

Romeoville, Illinois, Estats Units d'Amèrica

latitud: 41-36-30N, longitud: 088-05-39W, altitud: 205 m

Observació

L'informe es va fer fa 20 minuts, a les 02:15 UTC
Vent 6 kt del Sud
Temperatura 22°C
Humitat 88%
Pressió 1013 hPa
Visibilitat: 16.1 km
Núvols disperses a una alçada de 2700 ft
Núvols disperses a una alçada de 4000 ft
Núvols disperses a una alçada de 4600 ft

METAR: KLOT 280215Z AUTO 17006KT 10SM SCT027 SCT040 SCT046 22/20 A2992 RMK AO2 T02200203

Hora: 21:35 (02:35 UTC)


TAF: manca

Observacions i pronòstics meteorològics de més de 4000 aeroports (METAR i TAF).

Les estacions disponibles són els punts grocs i vermells al mapa.

Posi el ratolí al punt desitjat per veure el nom de l'estació.

Feu clic per veure les observacions i els pronòstics meteorològics.

Per canviar el mapa: feu clic els botons verds amb una creu de color negre per apropar; al botó verd amb un guió per allunyar la imatge; o en les fletxes verdes per a mapes adjacents.


METAR-TAF: